createdAt,value
2022-11-06T00:01:07.294Z,9.2
2022-11-06T00:03:07.038Z,9.1
2022-11-06T00:05:06.693Z,9.2
2022-11-06T00:07:09.800Z,9.2
2022-11-06T00:09:09.516Z,9.2
2022-11-06T00:11:09.221Z,9.2
2022-11-06T00:12:10.802Z,9.2
2022-11-06T00:14:10.513Z,9.3
2022-11-06T00:16:10.238Z,9.3
2022-11-06T00:18:10.192Z,9.3
2022-11-06T00:20:13.040Z,9.3
2022-11-06T00:22:12.754Z,9.3
2022-11-06T00:24:12.477Z,9.2
2022-11-06T00:26:12.185Z,9.2
2022-11-06T00:28:12.133Z,9.2
2022-11-06T00:38:14.293Z,9.2
2022-11-06T00:42:13.544Z,9.2
2022-11-06T00:44:13.235Z,9.2
2022-11-06T00:48:16.266Z,9.1
2022-11-06T00:50:15.917Z,9.1
2022-11-06T00:52:15.705Z,9.2
2022-11-06T00:56:15.111Z,9.2
2022-11-06T01:00:14.573Z,9.2
2022-11-06T01:02:17.748Z,9.1
2022-11-06T01:04:17.352Z,9.1
2022-11-06T01:06:17.072Z,9.2
2022-11-06T01:07:18.616Z,9.2
2022-11-06T01:09:18.333Z,9.2
2022-11-06T01:11:18.061Z,9.2
2022-11-06T01:13:17.792Z,9.2
2022-11-06T01:15:20.907Z,9.3
2022-11-06T01:17:20.641Z,9.3
2022-11-06T01:19:20.339Z,9.3
2022-11-06T01:21:20.073Z,9.3
2022-11-06T01:23:19.757Z,9.2
2022-11-06T01:25:19.475Z,9.3
2022-11-06T01:27:27.474Z,9.4
2022-11-06T01:29:22.295Z,9.4
2022-11-06T01:31:22.038Z,9.4
2022-11-06T01:33:21.715Z,9.4
2022-11-06T01:35:21.417Z,9.4
2022-11-06T01:37:21.141Z,9.4
2022-11-06T01:39:20.877Z,9.4
2022-11-06T01:41:20.553Z,9.5
2022-11-06T01:43:23.695Z,9.4
2022-11-06T01:45:23.416Z,9.4
2022-11-06T01:49:22.839Z,9.4
2022-11-06T01:51:22.564Z,9.4
2022-11-06T01:53:22.262Z,9.4
2022-11-06T01:55:21.968Z,9.3
2022-11-06T01:57:25.082Z,9.4
2022-11-06T01:59:24.793Z,9.4
2022-11-06T02:01:24.624Z,9.4
2022-11-06T02:02:26.156Z,9.3
2022-11-06T02:04:25.759Z,9.4
2022-11-06T02:06:25.458Z,9.4
2022-11-06T02:08:25.194Z,9.3
2022-11-06T02:10:28.291Z,9.4
2022-11-06T02:12:27.983Z,9.4
2022-11-06T02:14:27.695Z,9.4
2022-11-06T02:16:27.421Z,9.4
2022-11-06T02:18:27.169Z,9.4
2022-11-06T02:20:26.880Z,9.3
2022-11-06T02:22:26.557Z,9.3
2022-11-06T02:24:29.697Z,9.3
2022-11-06T02:30:28.846Z,9.3
2022-11-06T02:34:28.277Z,9.3
2022-11-06T02:36:27.988Z,9.4
2022-11-06T02:38:31.049Z,9.4
2022-11-06T02:40:30.842Z,9.4
2022-11-06T02:42:30.470Z,9.3
2022-11-06T02:44:30.197Z,9.3
2022-11-06T02:46:29.904Z,9.3
2022-11-06T02:48:29.595Z,9.3
2022-11-06T02:50:29.301Z,9.3
2022-11-06T02:54:32.115Z,9.2
2022-11-06T03:00:53.143Z,9.2
2022-11-06T03:02:53.008Z,9.2
2022-11-06T03:04:55.962Z,9.3
2022-11-06T03:06:55.680Z,9.3
2022-11-06T03:08:55.384Z,9.3
2022-11-06T03:10:55.081Z,9.3
2022-11-06T03:12:54.779Z,9.3
2022-11-06T03:14:54.475Z,9.3
2022-11-06T03:16:54.187Z,9.3
2022-11-06T03:18:57.301Z,9.3
2022-11-06T03:20:57.023Z,9.3
2022-11-06T03:22:56.714Z,9.3
2022-11-06T03:24:56.428Z,9.3
2022-11-06T03:26:56.126Z,9.3
2022-11-06T03:28:55.814Z,9.3
2022-11-06T03:32:58.658Z,9.4
2022-11-06T03:34:58.356Z,9.4
2022-11-06T03:36:58.073Z,9.4
2022-11-06T03:38:57.768Z,9.4
2022-11-06T03:40:57.468Z,9.4
2022-11-06T03:42:57.186Z,9.4
2022-11-06T03:44:56.876Z,9.4
2022-11-06T03:46:59.998Z,9.4
2022-11-06T03:48:59.702Z,9.4
2022-11-06T03:50:59.394Z,9.5
2022-11-06T03:54:00.706Z,9.5
2022-11-06T03:56:00.392Z,9.5
2022-11-06T03:58:00.110Z,9.5
2022-11-06T04:02:03.024Z,9.5
2022-11-06T04:04:02.633Z,9.5
2022-11-06T04:06:02.360Z,9.5
2022-11-06T04:08:02.047Z,9.5
2022-11-06T04:10:01.787Z,9.5
2022-11-06T04:12:01.488Z,9.5
2022-11-06T04:14:06.130Z,9.5
2022-11-06T04:16:05.921Z,9.5
2022-11-06T04:18:05.524Z,9.5
2022-11-06T04:20:05.239Z,9.5
2022-11-06T04:22:04.925Z,9.6
2022-11-06T04:24:04.648Z,9.5
2022-11-06T04:26:04.332Z,9.5
2022-11-06T04:28:07.424Z,9.5
2022-11-06T04:30:07.122Z,9.5
2022-11-06T04:32:06.803Z,9.4
2022-11-06T04:34:06.536Z,9.4
2022-11-06T04:36:06.216Z,9.3
2022-11-06T04:38:05.926Z,9.3
2022-11-06T04:40:05.604Z,9.4
2022-11-06T04:42:08.687Z,9.4
2022-11-06T04:44:08.399Z,9.4
2022-11-06T04:46:08.097Z,9.4
2022-11-06T04:47:09.672Z,9.5
2022-11-06T04:49:09.402Z,9.5
2022-11-06T04:51:09.084Z,9.5
2022-11-06T04:53:08.765Z,9.5
2022-11-06T04:55:11.907Z,9.4
2022-11-06T05:01:11.173Z,9.5
2022-11-06T05:03:10.730Z,9.5
2022-11-06T05:05:10.419Z,9.5
2022-11-06T05:07:10.159Z,9.5
2022-11-06T05:09:13.245Z,9.6
2022-11-06T05:11:12.932Z,9.5
2022-11-06T05:13:12.668Z,9.5
2022-11-06T05:15:12.370Z,9.6
2022-11-06T05:17:12.088Z,9.6
2022-11-06T05:19:11.805Z,9.6
2022-11-06T05:21:11.460Z,9.7
2022-11-06T05:23:14.567Z,9.7
2022-11-06T05:25:14.286Z,9.7
2022-11-06T05:27:13.977Z,9.7
2022-11-06T05:29:13.672Z,9.7
2022-11-06T05:35:12.754Z,9.7
2022-11-06T05:37:15.871Z,9.8
2022-11-06T05:39:15.584Z,9.8
2022-11-06T05:41:15.278Z,9.8
2022-11-06T05:42:16.834Z,9.8
2022-11-06T05:44:16.535Z,9.8
2022-11-06T05:46:42.902Z,9.8
2022-11-06T05:48:16.213Z,9.8
2022-11-06T05:50:18.996Z,9.8
2022-11-06T05:52:18.698Z,9.8
2022-11-06T05:54:18.392Z,9.9
2022-11-06T06:00:17.477Z,9.9
2022-11-06T06:02:17.335Z,9.9
2022-11-06T06:04:20.245Z,9.9
2022-11-06T06:06:19.934Z,9.9
2022-11-06T06:10:19.333Z,9.8
2022-11-06T06:12:18.996Z,9.8
2022-11-06T06:14:18.686Z,9.8
2022-11-06T06:16:18.385Z,9.8
2022-11-06T06:18:21.482Z,9.7
2022-11-06T06:20:21.188Z,9.7
2022-11-06T06:22:20.870Z,9.7
2022-11-06T06:24:20.597Z,9.7
2022-11-06T06:26:20.257Z,9.7
2022-11-06T06:28:19.945Z,9.7
2022-11-06T06:30:19.630Z,9.6
2022-11-06T06:32:22.773Z,9.6
2022-11-06T06:34:22.599Z,9.6
2022-11-06T06:36:22.165Z,9.6
2022-11-06T06:38:43.876Z,9.6
2022-11-06T06:40:43.585Z,9.5
2022-11-06T06:42:43.283Z,9.5
2022-11-06T06:44:46.392Z,9.5
2022-11-06T06:46:46.079Z,9.5
2022-11-06T06:48:45.753Z,9.5
2022-11-06T06:50:45.498Z,9.6
2022-11-06T06:52:45.160Z,9.6
2022-11-06T06:54:44.881Z,9.6
2022-11-06T06:56:44.582Z,9.6
2022-11-06T06:58:47.675Z,9.6
2022-11-06T07:00:47.451Z,9.5
2022-11-06T07:02:47.065Z,9.5
2022-11-06T07:04:46.737Z,9.6
2022-11-06T07:06:46.478Z,9.6
2022-11-06T07:08:46.196Z,9.6
2022-11-06T07:10:45.890Z,9.6
2022-11-06T07:12:48.970Z,9.7
2022-11-06T07:14:48.676Z,9.8
2022-11-06T07:16:53.420Z,9.8
2022-11-06T07:18:48.081Z,9.8
2022-11-06T07:20:47.804Z,9.9
2022-11-06T07:22:47.499Z,9.9
2022-11-06T07:24:47.186Z,9.9
2022-11-06T07:26:50.301Z,10
2022-11-06T07:28:49.996Z,10
2022-11-06T07:30:49.697Z,10
2022-11-06T07:33:50.945Z,10.1
2022-11-06T07:35:50.651Z,10.1
2022-11-06T07:39:53.449Z,10.3
2022-11-06T07:41:53.151Z,10.3
2022-11-06T07:43:52.843Z,10.3
2022-11-06T07:45:52.554Z,10.3
2022-11-06T07:47:56.474Z,10.4
2022-11-06T07:49:51.931Z,10.4
2022-11-06T07:51:51.623Z,10.4
2022-11-06T07:53:54.716Z,10.5
2022-11-06T07:55:54.399Z,10.5
2022-11-06T07:57:54.075Z,10.6
2022-11-06T07:59:53.781Z,10.6
2022-11-06T08:01:53.654Z,10.7
2022-11-06T08:03:53.176Z,10.7
2022-11-06T08:05:52.880Z,10.8
2022-11-06T08:07:55.957Z,10.8
2022-11-06T08:09:55.645Z,10.8
2022-11-06T08:17:54.399Z,10.8
2022-11-06T08:19:54.081Z,10.8
2022-11-06T08:21:57.203Z,10.9
2022-11-06T08:23:56.861Z,10.9
2022-11-06T08:25:56.549Z,10.9
2022-11-06T08:26:58.054Z,10.9
2022-11-06T08:28:57.779Z,11
2022-11-06T08:30:57.526Z,11
2022-11-06T08:32:57.116Z,11
2022-11-06T08:35:00.218Z,11
2022-11-06T08:36:59.872Z,11.1
2022-11-06T08:38:59.562Z,11.1
2022-11-06T08:40:59.220Z,11.2
2022-11-06T08:42:58.893Z,11.3
2022-11-06T08:44:58.588Z,11.3
2022-11-06T08:46:58.267Z,11.4
2022-11-06T08:53:00.716Z,11.6
2022-11-06T08:58:59.766Z,11.7
2022-11-06T09:00:59.577Z,11.7
2022-11-06T09:03:02.505Z,11.7
2022-11-06T09:05:02.157Z,11.7
2022-11-06T09:07:01.850Z,11.7
2022-11-06T09:09:01.532Z,11.8
2022-11-06T09:11:01.188Z,11.8
2022-11-06T09:13:00.874Z,11.8
2022-11-06T09:15:00.530Z,11.8
2022-11-06T09:17:03.575Z,11.8
2022-11-06T09:19:03.225Z,11.7
2022-11-06T09:21:02.865Z,11.7
2022-11-06T09:22:04.411Z,11.7
2022-11-06T09:24:04.068Z,11.7
2022-11-06T09:28:03.406Z,11.7
2022-11-06T09:30:06.472Z,11.8
2022-11-06T09:32:06.084Z,11.8
2022-11-06T09:34:05.769Z,11.8
2022-11-06T09:36:05.482Z,12
2022-11-06T09:38:05.092Z,12
2022-11-06T09:40:06.491Z,12.2
2022-11-06T09:42:04.404Z,12.2
2022-11-06T09:44:07.536Z,12.1
2022-11-06T09:46:07.187Z,12.1
2022-11-06T09:48:06.818Z,12.1
2022-11-06T09:50:06.428Z,12.1
2022-11-06T09:52:06.123Z,12.1
2022-11-06T09:54:05.754Z,12.1
2022-11-06T09:56:05.396Z,12.1
2022-11-06T09:58:10.146Z,12
2022-11-06T10:00:09.592Z,12
2022-11-06T10:02:09.379Z,12
2022-11-06T10:04:08.853Z,12
2022-11-06T10:06:08.650Z,12
2022-11-06T10:08:08.144Z,12
2022-11-06T10:10:07.793Z,12.1
2022-11-06T10:12:10.864Z,12.1
2022-11-06T10:14:10.484Z,12.2
2022-11-06T10:16:10.146Z,12.2
2022-11-06T10:18:29.282Z,12.3
2022-11-06T10:20:28.933Z,12.3
2022-11-06T10:22:28.545Z,12.2
2022-11-06T10:24:31.561Z,12.2
2022-11-06T10:32:30.101Z,12.3
2022-11-06T10:40:32.043Z,12.8
2022-11-06T10:42:36.671Z,12.8
2022-11-06T10:44:31.321Z,12.8
2022-11-06T10:46:30.956Z,12.9
2022-11-06T10:48:32.486Z,12.8
2022-11-06T10:50:30.215Z,12.7
2022-11-06T10:52:33.250Z,12.8
2022-11-06T10:54:32.862Z,12.8
2022-11-06T10:56:32.472Z,12.8
2022-11-06T10:58:32.101Z,12.8
2022-11-06T11:00:31.724Z,12.8
2022-11-06T11:02:31.426Z,12.7
2022-11-06T11:04:30.970Z,12.7
2022-11-06T11:06:33.997Z,12.7
2022-11-06T11:08:33.641Z,12.7
2022-11-06T11:10:33.271Z,12.6
2022-11-06T11:11:34.751Z,12.6
2022-11-06T11:13:34.380Z,12.7
2022-11-06T11:15:34.000Z,12.7
2022-11-06T11:17:33.797Z,12.7
2022-11-06T11:19:36.669Z,12.7
2022-11-06T11:21:36.285Z,12.7
2022-11-06T11:23:35.911Z,12.7
2022-11-06T11:25:35.545Z,12.9
2022-11-06T11:27:35.164Z,12.9
2022-11-06T11:29:34.811Z,13
2022-11-06T11:31:34.439Z,13
2022-11-06T11:37:36.653Z,12.8
2022-11-06T11:39:36.273Z,12.9
2022-11-06T11:41:35.895Z,12.9
2022-11-06T11:43:35.486Z,12.7
2022-11-06T11:51:37.389Z,12.7
2022-11-06T11:53:37.012Z,12.7
2022-11-06T11:55:36.643Z,12.7
2022-11-06T11:57:36.252Z,12.7
2022-11-06T11:59:35.865Z,12.6
2022-11-06T12:01:38.968Z,12.6
2022-11-06T12:05:38.124Z,12.5
2022-11-06T12:08:39.243Z,12.6
2022-11-06T12:10:38.875Z,12.7
2022-11-06T12:14:41.504Z,12.9
2022-11-06T12:16:41.124Z,13
2022-11-06T12:22:39.961Z,13.2
2022-11-06T12:24:39.593Z,13.4
2022-11-06T12:28:42.254Z,14
2022-11-06T12:30:41.856Z,14.2
2022-11-06T12:32:41.478Z,14.3
2022-11-06T12:34:41.092Z,14
2022-11-06T12:36:40.690Z,13.5
2022-11-06T12:42:42.942Z,12.9
2022-11-06T12:44:42.553Z,12.8
2022-11-06T12:46:42.133Z,12.7
2022-11-06T12:48:41.756Z,12.7
2022-11-06T12:50:41.353Z,12.7
2022-11-06T12:52:40.938Z,12.7
2022-11-06T12:54:40.562Z,12.7
2022-11-06T12:56:43.576Z,12.7
2022-11-06T12:58:43.198Z,12.7
2022-11-06T13:00:42.806Z,12.6
2022-11-06T13:01:44.413Z,12.5
2022-11-06T13:03:43.906Z,12.5
2022-11-06T13:05:43.501Z,12.5
2022-11-06T13:07:43.139Z,12.5
2022-11-06T13:09:46.145Z,12.4
2022-11-06T13:11:45.773Z,12.4
2022-11-06T13:13:45.388Z,12.4
2022-11-06T13:15:45.001Z,12.4
2022-11-06T13:17:44.627Z,12.4
2022-11-06T13:19:44.280Z,12.4
2022-11-06T13:21:43.861Z,12.4
2022-11-06T13:23:46.885Z,12.4
2022-11-06T13:25:46.537Z,12.4
2022-11-06T13:27:46.165Z,12.4
2022-11-06T13:29:45.766Z,12.4
2022-11-06T13:31:45.405Z,12.4
2022-11-06T13:33:45.015Z,12.5
2022-11-06T13:35:44.649Z,12.5
2022-11-06T13:41:46.961Z,12.4
2022-11-06T13:43:46.567Z,12.4
2022-11-06T13:45:46.188Z,12.4
2022-11-06T13:47:45.862Z,12.4
2022-11-06T13:49:45.468Z,12.5
2022-11-06T13:53:48.158Z,12.4
2022-11-06T13:55:47.821Z,12.4
2022-11-06T13:58:03.120Z,12.3
2022-11-06T14:00:03.087Z,12.3
2022-11-06T14:02:02.482Z,12.3
2022-11-06T14:04:05.425Z,12.3
2022-11-06T14:06:05.040Z,12.2
2022-11-06T14:08:04.669Z,12.3
2022-11-06T14:10:04.321Z,12.2
2022-11-06T14:12:03.997Z,12.2
2022-11-06T14:14:03.603Z,12.2
2022-11-06T14:16:03.204Z,12.1
2022-11-06T14:18:06.249Z,12.1
2022-11-06T14:20:05.883Z,12.1
2022-11-06T14:22:05.536Z,12.1
2022-11-06T14:24:05.202Z,12.1
2022-11-06T14:26:04.838Z,12.1
2022-11-06T14:28:04.495Z,12.1
2022-11-06T14:30:04.135Z,12.1
2022-11-06T14:32:07.189Z,12.1
2022-11-06T14:34:06.834Z,12.1
2022-11-06T14:36:06.478Z,12.1
2022-11-06T14:38:06.112Z,12
2022-11-06T14:40:05.775Z,12.1
2022-11-06T14:42:05.416Z,12
2022-11-06T14:44:05.041Z,11.9
2022-11-06T14:46:08.285Z,11.8
2022-11-06T14:48:07.745Z,11.8
2022-11-06T14:50:07.377Z,11.7
2022-11-06T14:55:08.230Z,11.4
2022-11-06T15:03:10.301Z,11
2022-11-06T15:07:09.665Z,10.6
2022-11-06T15:09:09.308Z,10.7
2022-11-06T15:11:08.984Z,10.6
2022-11-06T15:13:12.667Z,10.5
2022-11-06T15:15:11.721Z,10.4
2022-11-06T15:17:11.545Z,10.3
2022-11-06T15:19:11.095Z,10.2
2022-11-06T15:21:10.782Z,10.1
2022-11-06T15:23:10.787Z,9.9
2022-11-06T15:31:12.690Z,9.4
2022-11-06T15:33:12.617Z,9.3
2022-11-06T15:35:12.100Z,9.2
2022-11-06T15:37:11.811Z,9.1
2022-11-06T15:39:11.517Z,9.1
2022-11-06T15:41:14.635Z,9
2022-11-06T15:43:14.687Z,9
2022-11-06T15:45:15.664Z,8.9
2022-11-06T15:46:17.164Z,8.9
2022-11-06T15:48:16.914Z,8.9
2022-11-06T15:50:16.640Z,8.8
2022-11-06T15:52:16.456Z,8.8
2022-11-06T15:54:19.677Z,8.8
2022-11-06T15:56:19.406Z,8.7
2022-11-06T15:58:19.134Z,8.7
2022-11-06T16:00:18.825Z,8.6
2022-11-06T16:02:18.684Z,8.5
2022-11-06T16:04:18.329Z,8.5
2022-11-06T16:06:18.015Z,8.4
2022-11-06T16:08:21.248Z,8.4
2022-11-06T16:10:21.066Z,8.3
2022-11-06T16:12:20.787Z,8.3
2022-11-06T16:14:20.506Z,8.2
2022-11-06T16:16:20.326Z,8.2
2022-11-06T16:18:20.082Z,8.1
2022-11-06T16:20:19.890Z,8.1
2022-11-06T16:22:23.134Z,8.1
2022-11-06T16:24:22.831Z,8
2022-11-06T16:26:22.598Z,8
2022-11-06T16:28:22.305Z,7.9
2022-11-06T16:30:25.136Z,7.9
2022-11-06T16:34:21.571Z,7.9
2022-11-06T16:36:24.779Z,7.8
2022-11-06T16:38:40.337Z,7.8
2022-11-06T16:40:24.226Z,7.8
2022-11-06T16:41:25.808Z,7.7
2022-11-06T16:43:25.569Z,7.7
2022-11-06T16:45:25.370Z,7.7
2022-11-06T16:47:25.213Z,7.8
2022-11-06T16:49:28.407Z,7.8
2022-11-06T16:51:28.152Z,7.8
2022-11-06T16:53:27.912Z,7.8
2022-11-06T16:55:27.846Z,7.8
2022-11-06T16:57:27.550Z,7.9
2022-11-06T16:59:27.260Z,7.9
2022-11-06T17:01:27.232Z,7.9
2022-11-06T17:03:30.318Z,8
2022-11-06T17:05:30.020Z,8
2022-11-06T17:07:29.779Z,7.9
2022-11-06T17:09:29.532Z,8
2022-11-06T17:11:29.192Z,7.9
2022-11-06T17:13:28.918Z,7.9
2022-11-06T17:15:28.653Z,7.9
2022-11-06T17:17:34.267Z,7.9
2022-11-06T17:19:31.515Z,7.9
2022-11-06T17:21:31.262Z,7.9
2022-11-06T17:23:30.980Z,7.9
2022-11-06T17:25:30.807Z,7.9
2022-11-06T17:27:30.546Z,7.8
2022-11-06T17:29:30.292Z,7.9
2022-11-06T17:31:33.519Z,7.8
2022-11-06T17:33:33.228Z,7.8
2022-11-06T17:35:33.051Z,7.8
2022-11-06T17:37:54.936Z,7.8
2022-11-06T17:39:54.658Z,7.7
2022-11-06T17:41:54.384Z,7.8
2022-11-06T17:43:57.589Z,7.8
2022-11-06T17:45:57.297Z,7.8
2022-11-06T17:47:57.045Z,7.9
2022-11-06T17:55:56.086Z,8
2022-11-06T17:57:59.215Z,7.9
2022-11-06T17:59:59.088Z,7.9
2022-11-06T18:01:58.989Z,7.9
2022-11-06T18:03:58.631Z,7.9
2022-11-06T18:05:58.357Z,7.9
2022-11-06T18:07:58.186Z,7.9
2022-11-06T18:09:57.904Z,7.9
2022-11-06T18:12:01.074Z,8
2022-11-06T18:14:00.806Z,7.9
2022-11-06T18:16:00.635Z,7.9
2022-11-06T18:18:00.352Z,7.9
2022-11-06T18:20:00.139Z,7.9
2022-11-06T18:22:05.360Z,7.8
2022-11-06T18:24:01.005Z,7.7
2022-11-06T18:26:02.910Z,7.7
2022-11-06T18:28:03.912Z,7.8
2022-11-06T18:30:02.579Z,7.8
2022-11-06T18:31:04.014Z,7.8
2022-11-06T18:33:03.764Z,7.8
2022-11-06T18:35:03.515Z,7.8
2022-11-06T18:37:03.537Z,7.9
2022-11-06T18:41:06.355Z,7.9
2022-11-06T18:43:06.118Z,7.8
2022-11-06T18:45:05.868Z,7.8
2022-11-06T18:47:05.590Z,7.8
2022-11-06T18:49:05.348Z,7.8
2022-11-06T18:51:05.186Z,7.9
2022-11-06T18:53:08.307Z,7.8
2022-11-06T18:55:08.162Z,7.9
2022-11-06T18:57:07.996Z,7.9
2022-11-06T18:59:07.727Z,7.9
2022-11-06T19:01:07.551Z,7.9
2022-11-06T19:03:07.253Z,7.9
2022-11-06T19:05:07.138Z,7.9
2022-11-06T19:07:10.320Z,8
2022-11-06T19:09:10.087Z,8
2022-11-06T19:11:09.903Z,8.1
2022-11-06T19:13:09.755Z,8.1
2022-11-06T19:15:09.471Z,8.2
2022-11-06T19:17:09.226Z,8.2
2022-11-06T19:19:08.981Z,8.2
2022-11-06T19:23:12.315Z,8.3
2022-11-06T19:26:29.894Z,8.2
2022-11-06T19:28:13.543Z,8.3
2022-11-06T19:30:12.847Z,8.3
2022-11-06T19:32:12.589Z,8.3
2022-11-06T19:34:15.763Z,8.4
2022-11-06T19:36:15.513Z,8.4
2022-11-06T19:38:15.193Z,8.4
2022-11-06T19:40:14.960Z,8.4
2022-11-06T19:42:14.757Z,8.5
2022-11-06T19:44:14.501Z,8.5
2022-11-06T19:46:18.180Z,8.5
2022-11-06T19:48:17.360Z,8.5
2022-11-06T19:56:16.383Z,8.6
2022-11-06T19:58:16.056Z,8.6
2022-11-06T20:02:19.090Z,8.8
2022-11-06T20:06:18.480Z,8.7
2022-11-06T20:08:18.173Z,8.7
2022-11-06T20:10:17.918Z,8.6
2022-11-06T20:12:17.628Z,8.5
2022-11-06T20:14:17.366Z,8.5
2022-11-06T20:16:20.610Z,8.4
2022-11-06T20:18:20.320Z,8.4
2022-11-06T20:20:20.148Z,8.4
2022-11-06T20:21:21.712Z,8.5
2022-11-06T20:23:21.448Z,8.4
2022-11-06T20:25:21.166Z,8.4
2022-11-06T20:27:20.889Z,8.5
2022-11-06T20:29:24.044Z,8.5
2022-11-06T20:31:23.837Z,8.5
2022-11-06T20:33:23.550Z,8.6
2022-11-06T20:35:23.289Z,8.6
2022-11-06T20:39:22.854Z,8.7
2022-11-06T20:41:22.672Z,8.7
2022-11-06T20:47:25.249Z,8.9
2022-11-06T20:49:24.991Z,8.9
2022-11-06T20:51:24.714Z,8.9
2022-11-06T20:53:24.545Z,9
2022-11-06T20:57:27.387Z,9
2022-11-06T20:59:27.098Z,9.1
2022-11-06T21:01:27.021Z,9.1
2022-11-06T21:03:26.564Z,9.1
2022-11-06T21:05:26.377Z,9.1
2022-11-06T21:07:26.022Z,9.2
2022-11-06T21:09:25.723Z,9.2
2022-11-06T21:11:28.837Z,9.3
2022-11-06T21:13:28.576Z,9.3
2022-11-06T21:15:28.285Z,9.4
2022-11-06T21:19:49.746Z,9.5
2022-11-06T21:21:49.483Z,9.5
2022-11-06T21:25:52.269Z,9.6
2022-11-06T21:27:51.981Z,9.6
2022-11-06T21:29:53.213Z,9.7
2022-11-06T21:31:53.036Z,9.7
2022-11-06T21:33:52.594Z,9.7
2022-11-06T21:35:52.332Z,9.8
2022-11-06T21:37:55.439Z,9.7
2022-11-06T21:39:55.160Z,9.7
2022-11-06T21:41:54.845Z,9.7
2022-11-06T21:43:54.582Z,9.8
2022-11-06T21:45:54.295Z,9.8
2022-11-06T21:47:53.979Z,9.9
2022-11-06T21:51:56.835Z,9.9
2022-11-06T21:53:56.532Z,9.9
2022-11-06T21:55:56.239Z,10
2022-11-06T21:57:55.949Z,10
2022-11-06T21:59:55.624Z,10
2022-11-06T22:01:55.505Z,10.1
2022-11-06T22:03:55.031Z,10.1
2022-11-06T22:05:58.159Z,10.1
2022-11-06T22:07:57.859Z,10.1
2022-11-06T22:09:57.573Z,10.2
2022-11-06T22:10:59.121Z,10.2
2022-11-06T22:12:58.957Z,10.1
2022-11-06T22:14:58.520Z,10.2
2022-11-06T22:16:58.235Z,10.3
2022-11-06T22:19:01.317Z,10.3
2022-11-06T22:21:01.025Z,10.4
2022-11-06T22:23:00.792Z,10.4
2022-11-06T22:25:00.421Z,10.4
2022-11-06T22:27:00.119Z,10.5
2022-11-06T22:28:59.823Z,10.5
2022-11-06T22:30:59.516Z,10.5
2022-11-06T22:33:02.582Z,10.5
2022-11-06T22:35:02.294Z,10.4
2022-11-06T22:37:01.975Z,10.5
2022-11-06T22:39:01.668Z,10.4
2022-11-06T22:41:01.350Z,10.5
2022-11-06T22:43:01.016Z,10.5
2022-11-06T22:45:00.686Z,10.6
2022-11-06T22:49:03.484Z,10.5
2022-11-06T22:51:03.166Z,10.6
2022-11-06T22:53:02.843Z,10.6
2022-11-06T22:55:02.556Z,10.5
2022-11-06T22:57:02.220Z,10.5
2022-11-06T22:59:02.061Z,10.6
2022-11-06T23:01:04.965Z,10.6
2022-11-06T23:03:04.699Z,10.6
2022-11-06T23:05:04.362Z,10.5
2022-11-06T23:12:04.973Z,10.4
2022-11-06T23:14:09.360Z,10.5
2022-11-06T23:16:07.770Z,10.5
2022-11-06T23:18:07.431Z,10.6
2022-11-06T23:20:07.153Z,10.6
2022-11-06T23:22:06.813Z,10.5
2022-11-06T23:24:06.504Z,10.6
2022-11-06T23:26:06.180Z,10.5
2022-11-06T23:28:09.260Z,10.4
2022-11-06T23:30:08.961Z,10.4
2022-11-06T23:32:08.644Z,10.6
2022-11-06T23:34:08.329Z,10.5
2022-11-06T23:36:08.017Z,10.5
2022-11-06T23:38:07.967Z,10.4
2022-11-06T23:40:07.675Z,10.3
2022-11-06T23:42:10.738Z,10.3
2022-11-06T23:44:10.438Z,10.3
2022-11-06T23:46:10.147Z,10.5
2022-11-06T23:48:09.859Z,10.6
2022-11-06T23:50:09.512Z,10.7
2022-11-06T23:58:11.630Z,10.9
